sensor_id;sensor_type;location;lat;lon;timestamp;P1;durP1;ratioP1;P2;durP2;ratioP2
49043;SDS011;34860;48.066;14.124;2023-11-19T00:00:42;4.53;;;1.00;;
49043;SDS011;34860;48.066;14.124;2023-11-19T00:03:44;3.85;;;1.40;;
49043;SDS011;34860;48.066;14.124;2023-11-19T00:06:46;1.17;;;0.80;;
49043;SDS011;34860;48.066;14.124;2023-11-19T00:09:42;2.20;;;1.00;;
49043;SDS011;34860;48.066;14.124;2023-11-19T00:12:40;2.05;;;1.02;;
49043;SDS011;34860;48.066;14.124;2023-11-19T00:15:38;2.70;;;0.90;;
49043;SDS011;34860;48.066;14.124;2023-11-19T00:18:40;1.67;;;0.73;;
49043;SDS011;34860;48.066;14.124;2023-11-19T00:21:37;1.63;;;0.82;;
49043;SDS011;34860;48.066;14.124;2023-11-19T00:24:32;1.67;;;0.80;;
49043;SDS011;34860;48.066;14.124;2023-11-19T00:27:28;2.47;;;0.90;;
49043;SDS011;34860;48.066;14.124;2023-11-19T00:33:25;1.92;;;1.20;;
49043;SDS011;34860;48.066;14.124;2023-11-19T00:36:22;1.63;;;0.70;;
49043;SDS011;34860;48.066;14.124;2023-11-19T00:39:22;1.30;;;0.73;;
49043;SDS011;34860;48.066;14.124;2023-11-19T00:42:20;1.80;;;0.82;;
49043;SDS011;34860;48.066;14.124;2023-11-19T00:45:19;4.47;;;0.90;;
49043;SDS011;34860;48.066;14.124;2023-11-19T00:48:15;1.00;;;0.60;;
49043;SDS011;34860;48.066;14.124;2023-11-19T00:51:17;1.25;;;0.47;;
49043;SDS011;34860;48.066;14.124;2023-11-19T00:54:15;0.80;;;0.38;;
49043;SDS011;34860;48.066;14.124;2023-11-19T00:57:10;4.22;;;0.40;;
49043;SDS011;34860;48.066;14.124;2023-11-19T01:00:11;0.63;;;0.30;;
49043;SDS011;34860;48.066;14.124;2023-11-19T01:03:13;1.90;;;0.25;;
49043;SDS011;34860;48.066;14.124;2023-11-19T01:06:12;0.43;;;0.25;;
49043;SDS011;34860;48.066;14.124;2023-11-19T01:09:06;7.25;;;0.57;;
49043;SDS011;34860;48.066;14.124;2023-11-19T01:12:04;1.08;;;0.40;;
49043;SDS011;34860;48.066;14.124;2023-11-19T01:15:03;0.40;;;0.20;;
49043;SDS011;34860;48.066;14.124;2023-11-19T01:18:05;0.43;;;0.20;;
49043;SDS011;34860;48.066;14.124;2023-11-19T01:21:01;1.02;;;0.55;;
49043;SDS011;34860;48.066;14.124;2023-11-19T01:23:58;3.00;;;0.60;;
49043;SDS011;34860;48.066;14.124;2023-11-19T01:26:58;0.70;;;0.40;;
49043;SDS011;34860;48.066;14.124;2023-11-19T01:29:58;0.57;;;0.30;;
49043;SDS011;34860;48.066;14.124;2023-11-19T01:32:57;0.50;;;0.30;;
49043;SDS011;34860;48.066;14.124;2023-11-19T01:35:55;0.28;;;0.20;;
49043;SDS011;34860;48.066;14.124;2023-11-19T01:38:51;2.17;;;0.45;;
49043;SDS011;34860;48.066;14.124;2023-11-19T01:41:47;0.90;;;0.43;;
49043;SDS011;34860;48.066;14.124;2023-11-19T01:44:54;0.88;;;0.45;;
49043;SDS011;34860;48.066;14.124;2023-11-19T01:47:55;0.82;;;0.55;;
49043;SDS011;34860;48.066;14.124;2023-11-19T01:50:54;1.27;;;0.50;;
49043;SDS011;34860;48.066;14.124;2023-11-19T01:53:53;1.23;;;0.55;;
49043;SDS011;34860;48.066;14.124;2023-11-19T01:56:52;0.88;;;0.40;;
49043;SDS011;34860;48.066;14.124;2023-11-19T01:59:49;1.63;;;0.57;;
49043;SDS011;34860;48.066;14.124;2023-11-19T02:02:48;1.42;;;0.50;;
49043;SDS011;34860;48.066;14.124;2023-11-19T02:05:48;0.52;;;0.45;;
49043;SDS011;34860;48.066;14.124;2023-11-19T02:08:46;0.88;;;0.38;;
49043;SDS011;34860;48.066;14.124;2023-11-19T02:11:43;1.42;;;0.30;;
49043;SDS011;34860;48.066;14.124;2023-11-19T02:17:35;3.83;;;0.77;;
49043;SDS011;34860;48.066;14.124;2023-11-19T02:20:32;2.25;;;0.77;;
49043;SDS011;34860;48.066;14.124;2023-11-19T02:23:31;0.93;;;0.47;;
49043;SDS011;34860;48.066;14.124;2023-11-19T02:26:32;0.73;;;0.40;;
49043;SDS011;34860;48.066;14.124;2023-11-19T02:29:36;1.00;;;0.80;;
49043;SDS011;34860;48.066;14.124;2023-11-19T02:32:33;0.98;;;0.43;;
49043;SDS011;34860;48.066;14.124;2023-11-19T02:35:32;2.83;;;0.82;;
49043;SDS011;34860;48.066;14.124;2023-11-19T02:38:31;2.25;;;0.55;;
49043;SDS011;34860;48.066;14.124;2023-11-19T02:41:27;0.45;;;0.30;;
49043;SDS011;34860;48.066;14.124;2023-11-19T02:44:26;0.40;;;0.30;;
49043;SDS011;34860;48.066;14.124;2023-11-19T02:47:23;0.95;;;0.30;;
49043;SDS011;34860;48.066;14.124;2023-11-19T02:50:22;2.00;;;0.70;;
49043;SDS011;34860;48.066;14.124;2023-11-19T02:53:19;2.92;;;0.55;;
49043;SDS011;34860;48.066;14.124;2023-11-19T02:56:19;1.45;;;0.70;;
49043;SDS011;34860;48.066;14.124;2023-11-19T02:59:16;1.27;;;0.63;;
49043;SDS011;34860;48.066;14.124;2023-11-19T03:02:21;1.52;;;0.80;;
49043;SDS011;34860;48.066;14.124;2023-11-19T03:05:27;0.50;;;0.40;;
49043;SDS011;34860;48.066;14.124;2023-11-19T03:08:26;1.25;;;0.40;;
49043;SDS011;34860;48.066;14.124;2023-11-19T03:11:22;1.27;;;0.63;;
49043;SDS011;34860;48.066;14.124;2023-11-19T03:14:23;0.60;;;0.30;;
49043;SDS011;34860;48.066;14.124;2023-11-19T03:17:20;1.08;;;0.47;;
49043;SDS011;34860;48.066;14.124;2023-11-19T03:20:19;1.70;;;0.68;;
49043;SDS011;34860;48.066;14.124;2023-11-19T03:23:19;0.93;;;0.43;;
49043;SDS011;34860;48.066;14.124;2023-11-19T03:26:18;0.70;;;0.40;;
49043;SDS011;34860;48.066;14.124;2023-11-19T03:29:16;0.73;;;0.28;;
49043;SDS011;34860;48.066;14.124;2023-11-19T03:32:13;0.80;;;0.38;;
49043;SDS011;34860;48.066;14.124;2023-11-19T03:35:22;2.20;;;0.47;;
49043;SDS011;34860;48.066;14.124;2023-11-19T03:38:19;1.02;;;0.63;;
49043;SDS011;34860;48.066;14.124;2023-11-19T03:41:16;1.20;;;0.57;;
49043;SDS011;34860;48.066;14.124;2023-11-19T03:47:13;0.75;;;0.35;;
49043;SDS011;34860;48.066;14.124;2023-11-19T03:50:16;2.60;;;1.02;;
49043;SDS011;34860;48.066;14.124;2023-11-19T03:53:16;10.02;;;0.70;;
49043;SDS011;34860;48.066;14.124;2023-11-19T03:56:15;1.73;;;0.70;;
49043;SDS011;34860;48.066;14.124;2023-11-19T03:59:11;1.10;;;0.75;;
49043;SDS011;34860;48.066;14.124;2023-11-19T04:02:08;0.70;;;0.32;;
49043;SDS011;34860;48.066;14.124;2023-11-19T04:05:05;9.23;;;0.82;;
49043;SDS011;34860;48.066;14.124;2023-11-19T04:08:01;10.68;;;1.45;;
49043;SDS011;34860;48.066;14.124;2023-11-19T04:11:03;26.25;;;1.73;;
49043;SDS011;34860;48.066;14.124;2023-11-19T04:14:00;5.78;;;1.58;;
49043;SDS011;34860;48.066;14.124;2023-11-19T04:16:59;22.50;;;1.45;;
49043;SDS011;34860;48.066;14.124;2023-11-19T04:19:57;5.35;;;0.40;;
49043;SDS011;34860;48.066;14.124;2023-11-19T04:22:57;3.92;;;0.52;;
49043;SDS011;34860;48.066;14.124;2023-11-19T04:25:52;2.90;;;1.15;;
49043;SDS011;34860;48.066;14.124;2023-11-19T04:28:59;1.58;;;0.50;;
49043;SDS011;34860;48.066;14.124;2023-11-19T04:31:56;0.88;;;0.40;;
49043;SDS011;34860;48.066;14.124;2023-11-19T04:34:51;0.57;;;0.40;;
49043;SDS011;34860;48.066;14.124;2023-11-19T04:37:48;1.05;;;0.60;;
49043;SDS011;34860;48.066;14.124;2023-11-19T04:40:52;0.98;;;0.57;;
49043;SDS011;34860;48.066;14.124;2023-11-19T04:43:46;1.97;;;1.03;;
49043;SDS011;34860;48.066;14.124;2023-11-19T04:46:46;3.30;;;0.90;;
49043;SDS011;34860;48.066;14.124;2023-11-19T04:49:44;1.25;;;0.50;;
49043;SDS011;34860;48.066;14.124;2023-11-19T04:52:40;1.20;;;0.50;;
49043;SDS011;34860;48.066;14.124;2023-11-19T04:55:34;1.02;;;0.73;;
49043;SDS011;34860;48.066;14.124;2023-11-19T04:58:28;1.40;;;0.52;;
49043;SDS011;34860;48.066;14.124;2023-11-19T05:01:24;1.70;;;0.70;;
49043;SDS011;34860;48.066;14.124;2023-11-19T05:04:20;4.53;;;0.57;;
49043;SDS011;34860;48.066;14.124;2023-11-19T05:07:14;33.40;;;1.67;;
49043;SDS011;34860;48.066;14.124;2023-11-19T05:10:13;5.13;;;1.40;;
49043;SDS011;34860;48.066;14.124;2023-11-19T05:13:14;1.73;;;0.57;;
49043;SDS011;34860;48.066;14.124;2023-11-19T05:16:13;1.05;;;0.60;;
49043;SDS011;34860;48.066;14.124;2023-11-19T05:19:13;2.20;;;0.82;;
49043;SDS011;34860;48.066;14.124;2023-11-19T05:22:09;2.35;;;1.05;;
49043;SDS011;34860;48.066;14.124;2023-11-19T05:25:07;1.35;;;0.47;;
49043;SDS011;34860;48.066;14.124;2023-11-19T05:28:09;1.10;;;0.40;;
49043;SDS011;34860;48.066;14.124;2023-11-19T05:31:08;3.35;;;0.73;;
49043;SDS011;34860;48.066;14.124;2023-11-19T05:34:04;3.20;;;0.90;;
49043;SDS011;34860;48.066;14.124;2023-11-19T05:37:02;0.80;;;0.50;;
49043;SDS011;34860;48.066;14.124;2023-11-19T05:40:02;0.35;;;0.30;;
49043;SDS011;34860;48.066;14.124;2023-11-19T05:43:03;3.20;;;0.90;;
49043;SDS011;34860;48.066;14.124;2023-11-19T05:46:04;1.67;;;1.02;;
49043;SDS011;34860;48.066;14.124;2023-11-19T05:49:05;3.10;;;0.98;;
49043;SDS011;34860;48.066;14.124;2023-11-19T05:52:04;1.33;;;0.60;;
49043;SDS011;34860;48.066;14.124;2023-11-19T05:55:05;3.13;;;0.73;;
49043;SDS011;34860;48.066;14.124;2023-11-19T05:57:59;1.70;;;0.63;;
49043;SDS011;34860;48.066;14.124;2023-11-19T06:00:58;1.65;;;0.90;;
49043;SDS011;34860;48.066;14.124;2023-11-19T06:03:54;2.83;;;0.75;;
49043;SDS011;34860;48.066;14.124;2023-11-19T06:06:50;0.30;;;0.20;;
49043;SDS011;34860;48.066;14.124;2023-11-19T06:09:46;0.52;;;0.32;;
49043;SDS011;34860;48.066;14.124;2023-11-19T06:12:49;1.65;;;0.50;;
49043;SDS011;34860;48.066;14.124;2023-11-19T06:15:50;0.52;;;0.40;;
49043;SDS011;34860;48.066;14.124;2023-11-19T06:18:47;1.05;;;0.50;;
49043;SDS011;34860;48.066;14.124;2023-11-19T06:21:44;67.28;;;3.40;;
49043;SDS011;34860;48.066;14.124;2023-11-19T06:24:40;9.07;;;1.13;;
49043;SDS011;34860;48.066;14.124;2023-11-19T06:27:33;33.22;;;2.95;;
49043;SDS011;34860;48.066;14.124;2023-11-19T06:30:34;1.17;;;0.85;;
49043;SDS011;34860;48.066;14.124;2023-11-19T06:33:34;16.33;;;1.70;;
49043;SDS011;34860;48.066;14.124;2023-11-19T06:36:32;5.30;;;0.90;;
49043;SDS011;34860;48.066;14.124;2023-11-19T06:39:31;34.28;;;1.27;;
49043;SDS011;34860;48.066;14.124;2023-11-19T06:42:29;4.88;;;0.40;;
49043;SDS011;34860;48.066;14.124;2023-11-19T06:45:25;0.43;;;0.30;;
49043;SDS011;34860;48.066;14.124;2023-11-19T06:48:24;0.90;;;0.50;;
49043;SDS011;34860;48.066;14.124;2023-11-19T06:51:22;0.40;;;0.30;;
49043;SDS011;34860;48.066;14.124;2023-11-19T06:54:18;0.98;;;0.40;;
49043;SDS011;34860;48.066;14.124;2023-11-19T06:57:16;0.68;;;0.40;;
49043;SDS011;34860;48.066;14.124;2023-11-19T07:00:16;1.52;;;0.60;;
49043;SDS011;34860;48.066;14.124;2023-11-19T07:03:16;1.23;;;0.50;;
49043;SDS011;34860;48.066;14.124;2023-11-19T07:06:21;1.20;;;0.63;;
49043;SDS011;34860;48.066;14.124;2023-11-19T07:09:21;1.83;;;0.43;;
49043;SDS011;34860;48.066;14.124;2023-11-19T07:12:23;3.92;;;0.57;;
49043;SDS011;34860;48.066;14.124;2023-11-19T07:15:22;1.52;;;0.28;;
49043;SDS011;34860;48.066;14.124;2023-11-19T07:18:22;0.82;;;0.40;;
49043;SDS011;34860;48.066;14.124;2023-11-19T07:21:25;1.35;;;0.88;;
49043;SDS011;34860;48.066;14.124;2023-11-19T07:24:26;0.73;;;0.30;;
49043;SDS011;34860;48.066;14.124;2023-11-19T07:27:25;0.90;;;0.68;;
49043;SDS011;34860;48.066;14.124;2023-11-19T07:30:24;0.28;;;0.20;;
49043;SDS011;34860;48.066;14.124;2023-11-19T07:33:19;1.58;;;1.10;;
49043;SDS011;34860;48.066;14.124;2023-11-19T07:36:09;0.80;;;0.40;;
49043;SDS011;34860;48.066;14.124;2023-11-19T07:38:59;0.43;;;0.28;;
49043;SDS011;34860;48.066;14.124;2023-11-19T07:41:48;1.13;;;0.30;;
49043;SDS011;34860;48.066;14.124;2023-11-19T07:44:37;0.57;;;0.30;;
49043;SDS011;34860;48.066;14.124;2023-11-19T07:47:26;1.42;;;0.30;;
49043;SDS011;34860;48.066;14.124;2023-11-19T07:50:16;0.50;;;0.28;;
49043;SDS011;34860;48.066;14.124;2023-11-19T07:53:07;2.13;;;0.73;;
49043;SDS011;34860;48.066;14.124;2023-11-19T07:55:59;0.60;;;0.32;;
49043;SDS011;34860;48.066;14.124;2023-11-19T07:58:48;4.10;;;0.98;;
49043;SDS011;34860;48.066;14.124;2023-11-19T08:01:36;2.33;;;0.73;;
49043;SDS011;34860;48.066;14.124;2023-11-19T08:04:25;1.77;;;0.73;;
49043;SDS011;34860;48.066;14.124;2023-11-19T08:07:15;1.40;;;0.70;;
49043;SDS011;34860;48.066;14.124;2023-11-19T08:10:07;0.95;;;0.70;;
49043;SDS011;34860;48.066;14.124;2023-11-19T08:12:59;2.45;;;1.05;;
49043;SDS011;34860;48.066;14.124;2023-11-19T08:15:48;2.47;;;0.60;;
49043;SDS011;34860;48.066;14.124;2023-11-19T08:18:38;1.83;;;0.60;;
49043;SDS011;34860;48.066;14.124;2023-11-19T08:21:30;2.92;;;0.50;;
49043;SDS011;34860;48.066;14.124;2023-11-19T08:24:19;0.50;;;0.28;;
49043;SDS011;34860;48.066;14.124;2023-11-19T08:27:08;1.27;;;0.47;;
49043;SDS011;34860;48.066;14.124;2023-11-19T08:29:58;1.85;;;1.10;;
49043;SDS011;34860;48.066;14.124;2023-11-19T08:32:48;1.35;;;0.80;;
49043;SDS011;34860;48.066;14.124;2023-11-19T08:35:38;1.70;;;0.93;;
49043;SDS011;34860;48.066;14.124;2023-11-19T08:38:27;2.00;;;0.90;;
49043;SDS011;34860;48.066;14.124;2023-11-19T08:41:17;24.70;;;1.73;;
49043;SDS011;34860;48.066;14.124;2023-11-19T08:44:07;0.93;;;0.65;;
49043;SDS011;34860;48.066;14.124;2023-11-19T08:46:57;1.33;;;0.90;;
49043;SDS011;34860;48.066;14.124;2023-11-19T08:49:46;1.48;;;0.93;;
49043;SDS011;34860;48.066;14.124;2023-11-19T08:52:48;0.70;;;0.40;;
49043;SDS011;34860;48.066;14.124;2023-11-19T08:55:40;2.97;;;0.65;;
49043;SDS011;34860;48.066;14.124;2023-11-19T08:58:30;1.00;;;0.50;;
49043;SDS011;34860;48.066;14.124;2023-11-19T09:01:20;1.85;;;0.60;;
49043;SDS011;34860;48.066;14.124;2023-11-19T09:04:11;0.55;;;0.40;;
49043;SDS011;34860;48.066;14.124;2023-11-19T09:07:01;1.58;;;0.80;;
49043;SDS011;34860;48.066;14.124;2023-11-19T09:09:52;1.90;;;0.77;;
49043;SDS011;34860;48.066;14.124;2023-11-19T09:12:41;2.50;;;0.68;;
49043;SDS011;34860;48.066;14.124;2023-11-19T09:15:30;1.90;;;0.65;;
49043;SDS011;34860;48.066;14.124;2023-11-19T09:18:21;1.52;;;0.63;;
49043;SDS011;34860;48.066;14.124;2023-11-19T09:21:13;2.58;;;1.33;;
49043;SDS011;34860;48.066;14.124;2023-11-19T09:24:02;3.15;;;1.00;;
49043;SDS011;34860;48.066;14.124;2023-11-19T09:26:53;1.63;;;0.70;;
49043;SDS011;34860;48.066;14.124;2023-11-19T09:29:43;2.15;;;0.55;;
49043;SDS011;34860;48.066;14.124;2023-11-19T09:32:34;5.80;;;2.03;;
49043;SDS011;34860;48.066;14.124;2023-11-19T09:35:25;19.88;;;2.03;;
49043;SDS011;34860;48.066;14.124;2023-11-19T09:38:16;24.83;;;3.70;;
49043;SDS011;34860;48.066;14.124;2023-11-19T09:41:02;8.57;;;1.00;;
49043;SDS011;34860;48.066;14.124;2023-11-19T09:43:55;17.88;;;1.50;;
49043;SDS011;34860;48.066;14.124;2023-11-19T09:46:46;82.18;;;3.50;;
49043;SDS011;34860;48.066;14.124;2023-11-19T09:49:36;42.03;;;2.63;;
49043;SDS011;34860;48.066;14.124;2023-11-19T09:52:27;3.10;;;0.82;;
49043;SDS011;34860;48.066;14.124;2023-11-19T09:55:19;1.15;;;0.60;;
49043;SDS011;34860;48.066;14.124;2023-11-19T09:58:09;1.60;;;0.98;;
49043;SDS011;34860;48.066;14.124;2023-11-19T10:01:04;5.28;;;0.90;;
49043;SDS011;34860;48.066;14.124;2023-11-19T10:04:00;1.77;;;1.00;;
49043;SDS011;34860;48.066;14.124;2023-11-19T10:06:51;3.25;;;1.48;;
49043;SDS011;34860;48.066;14.124;2023-11-19T10:09:42;1.60;;;1.05;;
49043;SDS011;34860;48.066;14.124;2023-11-19T10:12:37;7.10;;;2.38;;
49043;SDS011;34860;48.066;14.124;2023-11-19T10:15:43;4.63;;;1.98;;
49043;SDS011;34860;48.066;14.124;2023-11-19T10:18:36;2.53;;;1.45;;
49043;SDS011;34860;48.066;14.124;2023-11-19T10:21:32;3.05;;;1.65;;
49043;SDS011;34860;48.066;14.124;2023-11-19T10:24:31;3.35;;;1.95;;
49043;SDS011;34860;48.066;14.124;2023-11-19T10:27:23;3.92;;;1.80;;
49043;SDS011;34860;48.066;14.124;2023-11-19T10:30:18;5.72;;;1.38;;
49043;SDS011;34860;48.066;14.124;2023-11-19T10:33:11;5.50;;;2.72;;
49043;SDS011;34860;48.066;14.124;2023-11-19T10:36:05;6.20;;;2.28;;
49043;SDS011;34860;48.066;14.124;2023-11-19T10:38:56;4.18;;;1.13;;
49043;SDS011;34860;48.066;14.124;2023-11-19T10:41:48;3.17;;;0.98;;
49043;SDS011;34860;48.066;14.124;2023-11-19T10:44:41;0.77;;;0.50;;
49043;SDS011;34860;48.066;14.124;2023-11-19T10:47:36;1.48;;;0.50;;
49043;SDS011;34860;48.066;14.124;2023-11-19T10:50:29;1.27;;;0.85;;
49043;SDS011;34860;48.066;14.124;2023-11-19T10:53:21;2.00;;;1.23;;
49043;SDS011;34860;48.066;14.124;2023-11-19T10:56:15;1.35;;;0.85;;
49043;SDS011;34860;48.066;14.124;2023-11-19T10:59:08;2.70;;;0.68;;
49043;SDS011;34860;48.066;14.124;2023-11-19T11:02:03;1.80;;;1.00;;
49043;SDS011;34860;48.066;14.124;2023-11-19T11:04:59;2.50;;;1.52;;
49043;SDS011;34860;48.066;14.124;2023-11-19T11:07:52;1.88;;;1.00;;
49043;SDS011;34860;48.066;14.124;2023-11-19T11:10:44;3.88;;;1.30;;
49043;SDS011;34860;48.066;14.124;2023-11-19T11:13:39;15.65;;;1.13;;
49043;SDS011;34860;48.066;14.124;2023-11-19T11:16:32;4.85;;;1.65;;
49043;SDS011;34860;48.066;14.124;2023-11-19T11:19:24;3.13;;;1.98;;
49043;SDS011;34860;48.066;14.124;2023-11-19T11:22:19;2.60;;;1.23;;
49043;SDS011;34860;48.066;14.124;2023-11-19T11:26:08;3.10;;;1.40;;
49043;SDS011;34860;48.066;14.124;2023-11-19T11:29:14;3.05;;;1.42;;
49043;SDS011;34860;48.066;14.124;2023-11-19T11:32:18;2.40;;;1.30;;
49043;SDS011;34860;48.066;14.124;2023-11-19T11:35:24;4.88;;;1.80;;
49043;SDS011;34860;48.066;14.124;2023-11-19T11:38:22;1.88;;;1.10;;
49043;SDS011;34860;48.066;14.124;2023-11-19T11:41:17;2.22;;;1.45;;
49043;SDS011;34860;48.066;14.124;2023-11-19T11:44:08;3.70;;;1.50;;
49043;SDS011;34860;48.066;14.124;2023-11-19T11:46:59;4.75;;;2.13;;
49043;SDS011;34860;48.066;14.124;2023-11-19T11:49:49;3.67;;;1.58;;
49043;SDS011;34860;48.066;14.124;2023-11-19T11:56:05;3.00;;;0.88;;
49043;SDS011;34860;48.066;14.124;2023-11-19T11:58:57;1.65;;;0.82;;
49043;SDS011;34860;48.066;14.124;2023-11-19T12:01:57;2.30;;;0.98;;
49043;SDS011;34860;48.066;14.124;2023-11-19T12:04:49;4.18;;;1.40;;
49043;SDS011;34860;48.066;14.124;2023-11-19T12:07:44;1.10;;;0.60;;
49043;SDS011;34860;48.066;14.124;2023-11-19T12:10:46;2.47;;;0.65;;
49043;SDS011;34860;48.066;14.124;2023-11-19T12:13:54;1.50;;;0.90;;
49043;SDS011;34860;48.066;14.124;2023-11-19T12:16:52;2.65;;;1.10;;
49043;SDS011;34860;48.066;14.124;2023-11-19T12:19:42;2.10;;;0.93;;
49043;SDS011;34860;48.066;14.124;2023-11-19T12:22:37;1.35;;;0.55;;
49043;SDS011;34860;48.066;14.124;2023-11-19T12:25:29;0.95;;;0.45;;
49043;SDS011;34860;48.066;14.124;2023-11-19T12:28:24;1.63;;;0.55;;
49043;SDS011;34860;48.066;14.124;2023-11-19T12:31:17;1.48;;;0.70;;
49043;SDS011;34860;48.066;14.124;2023-11-19T12:34:07;3.25;;;1.45;;
49043;SDS011;34860;48.066;14.124;2023-11-19T12:37:02;2.47;;;1.20;;
49043;SDS011;34860;48.066;14.124;2023-11-19T12:39:58;1.50;;;0.93;;
49043;SDS011;34860;48.066;14.124;2023-11-19T12:42:51;1.40;;;0.50;;
49043;SDS011;34860;48.066;14.124;2023-11-19T12:45:43;1.98;;;0.55;;
49043;SDS011;34860;48.066;14.124;2023-11-19T12:48:36;1.55;;;0.70;;
49043;SDS011;34860;48.066;14.124;2023-11-19T12:51:30;4.38;;;2.03;;
49043;SDS011;34860;48.066;14.124;2023-11-19T12:54:31;1.67;;;1.08;;
49043;SDS011;34860;48.066;14.124;2023-11-19T12:57:34;1.02;;;0.60;;
49043;SDS011;34860;48.066;14.124;2023-11-19T13:00:26;1.98;;;0.50;;
49043;SDS011;34860;48.066;14.124;2023-11-19T13:03:25;0.80;;;0.30;;
49043;SDS011;34860;48.066;14.124;2023-11-19T13:06:22;1.45;;;0.52;;
49043;SDS011;34860;48.066;14.124;2023-11-19T13:09:23;0.90;;;0.30;;
49043;SDS011;34860;48.066;14.124;2023-11-19T13:12:14;0.80;;;0.30;;
49043;SDS011;34860;48.066;14.124;2023-11-19T13:15:05;0.32;;;0.10;;
49043;SDS011;34860;48.066;14.124;2023-11-19T13:18:02;0.38;;;0.10;;
49043;SDS011;34860;48.066;14.124;2023-11-19T13:20:52;0.05;;;0.05;;
49043;SDS011;34860;48.066;14.124;2023-11-19T13:23:46;0.28;;;0.00;;
49043;SDS011;34860;48.066;14.124;2023-11-19T13:26:36;0.13;;;0.05;;
49043;SDS011;34860;48.066;14.124;2023-11-19T13:29:28;0.00;;;0.00;;
49043;SDS011;34860;48.066;14.124;2023-11-19T13:32:18;1.17;;;0.10;;
49043;SDS011;34860;48.066;14.124;2023-11-19T13:35:09;2.00;;;0.10;;
49043;SDS011;34860;48.066;14.124;2023-11-19T13:37:59;0.20;;;0.10;;
49043;SDS011;34860;48.066;14.124;2023-11-19T13:40:50;0.10;;;0.00;;
49043;SDS011;34860;48.066;14.124;2023-11-19T13:43:41;0.22;;;0.00;;
49043;SDS011;34860;48.066;14.124;2023-11-19T13:46:38;0.08;;;0.00;;
49043;SDS011;34860;48.066;14.124;2023-11-19T13:49:29;0.03;;;0.00;;
49043;SDS011;34860;48.066;14.124;2023-11-19T13:52:20;0.17;;;0.10;;
49043;SDS011;34860;48.066;14.124;2023-11-19T13:55:11;0.10;;;0.00;;
49043;SDS011;34860;48.066;14.124;2023-11-19T13:58:06;0.08;;;0.03;;
49043;SDS011;34860;48.066;14.124;2023-11-19T14:00:56;1.02;;;0.35;;
49043;SDS011;34860;48.066;14.124;2023-11-19T14:03:46;0.55;;;0.00;;
49043;SDS011;34860;48.066;14.124;2023-11-19T14:06:37;0.10;;;0.10;;
49043;SDS011;34860;48.066;14.124;2023-11-19T14:09:30;0.32;;;0.10;;
49043;SDS011;34860;48.066;14.124;2023-11-19T14:12:21;0.28;;;0.10;;
49043;SDS011;34860;48.066;14.124;2023-11-19T14:15:13;0.20;;;0.03;;
49043;SDS011;34860;48.066;14.124;2023-11-19T14:18:05;0.40;;;0.03;;
49043;SDS011;34860;48.066;14.124;2023-11-19T14:20:56;0.15;;;0.10;;
49043;SDS011;34860;48.066;14.124;2023-11-19T14:23:47;0.38;;;0.17;;
49043;SDS011;34860;48.066;14.124;2023-11-19T14:26:38;0.10;;;0.08;;
49043;SDS011;34860;48.066;14.124;2023-11-19T14:29:29;0.10;;;0.10;;
49043;SDS011;34860;48.066;14.124;2023-11-19T14:32:21;0.38;;;0.10;;
49043;SDS011;34860;48.066;14.124;2023-11-19T14:35:11;0.10;;;0.00;;
49043;SDS011;34860;48.066;14.124;2023-11-19T14:38:02;0.20;;;0.10;;
49043;SDS011;34860;48.066;14.124;2023-11-19T14:40:54;0.00;;;0.00;;
49043;SDS011;34860;48.066;14.124;2023-11-19T14:43:47;0.10;;;0.08;;
49043;SDS011;34860;48.066;14.124;2023-11-19T14:46:37;0.32;;;0.10;;
49043;SDS011;34860;48.066;14.124;2023-11-19T14:49:35;0.07;;;0.03;;
49043;SDS011;34860;48.066;14.124;2023-11-19T14:52:25;0.10;;;0.00;;
49043;SDS011;34860;48.066;14.124;2023-11-19T14:55:19;0.00;;;0.00;;
49043;SDS011;34860;48.066;14.124;2023-11-19T14:58:09;0.47;;;0.10;;
49043;SDS011;34860;48.066;14.124;2023-11-19T15:01:02;0.20;;;0.10;;
49043;SDS011;34860;48.066;14.124;2023-11-19T15:03:53;0.40;;;0.00;;
49043;SDS011;34860;48.066;14.124;2023-11-19T15:06:47;0.40;;;0.10;;
49043;SDS011;34860;48.066;14.124;2023-11-19T15:09:41;0.20;;;0.10;;
49043;SDS011;34860;48.066;14.124;2023-11-19T15:12:31;0.20;;;0.00;;
49043;SDS011;34860;48.066;14.124;2023-11-19T15:15:29;0.10;;;0.10;;
49043;SDS011;34860;48.066;14.124;2023-11-19T15:18:22;0.20;;;0.10;;
49043;SDS011;34860;48.066;14.124;2023-11-19T15:21:12;0.45;;;0.10;;
49043;SDS011;34860;48.066;14.124;2023-11-19T15:24:04;0.10;;;0.00;;
49043;SDS011;34860;48.066;14.124;2023-11-19T15:26:58;0.17;;;0.00;;
49043;SDS011;34860;48.066;14.124;2023-11-19T15:29:51;0.30;;;0.00;;
49043;SDS011;34860;48.066;14.124;2023-11-19T15:32:41;0.00;;;0.00;;
49043;SDS011;34860;48.066;14.124;2023-11-19T15:35:32;6.38;;;0.30;;
49043;SDS011;34860;48.066;14.124;2023-11-19T15:38:23;0.00;;;0.00;;
49043;SDS011;34860;48.066;14.124;2023-11-19T15:41:16;0.20;;;0.10;;
49043;SDS011;34860;48.066;14.124;2023-11-19T15:44:08;0.90;;;0.10;;
49043;SDS011;34860;48.066;14.124;2023-11-19T15:47:10;0.32;;;0.10;;
49043;SDS011;34860;48.066;14.124;2023-11-19T15:50:15;0.10;;;0.00;;
49043;SDS011;34860;48.066;14.124;2023-11-19T15:53:22;0.20;;;0.00;;
49043;SDS011;34860;48.066;14.124;2023-11-19T15:56:28;0.10;;;0.10;;
49043;SDS011;34860;48.066;14.124;2023-11-19T15:59:38;0.45;;;0.10;;
49043;SDS011;34860;48.066;14.124;2023-11-19T16:02:44;0.00;;;0.00;;
49043;SDS011;34860;48.066;14.124;2023-11-19T16:06:18;0.73;;;0.52;;
49043;SDS011;34860;48.066;14.124;2023-11-19T16:09:24;0.15;;;0.00;;
49043;SDS011;34860;48.066;14.124;2023-11-19T16:12:42;0.10;;;0.00;;
49043;SDS011;34860;48.066;14.124;2023-11-19T16:18:47;1.20;;;0.10;;
49043;SDS011;34860;48.066;14.124;2023-11-19T16:21:54;0.40;;;0.00;;
49043;SDS011;34860;48.066;14.124;2023-11-19T16:25:17;0.20;;;0.10;;
49043;SDS011;34860;48.066;14.124;2023-11-19T16:28:22;0.10;;;0.10;;
49043;SDS011;34860;48.066;14.124;2023-11-19T16:31:32;0.10;;;0.08;;
49043;SDS011;34860;48.066;14.124;2023-11-19T16:34:41;0.22;;;0.10;;
49043;SDS011;34860;48.066;14.124;2023-11-19T16:37:48;0.82;;;0.20;;
49043;SDS011;34860;48.066;14.124;2023-11-19T16:40:54;0.20;;;0.13;;
49043;SDS011;34860;48.066;14.124;2023-11-19T16:44:02;0.63;;;0.17;;
49043;SDS011;34860;48.066;14.124;2023-11-19T16:47:11;0.45;;;0.10;;
49043;SDS011;34860;48.066;14.124;2023-11-19T16:50:23;0.52;;;0.00;;
49043;SDS011;34860;48.066;14.124;2023-11-19T16:53:56;0.20;;;0.10;;
49043;SDS011;34860;48.066;14.124;2023-11-19T16:57:03;0.45;;;0.10;;
49043;SDS011;34860;48.066;14.124;2023-11-19T17:00:21;2.28;;;0.20;;
49043;SDS011;34860;48.066;14.124;2023-11-19T17:03:26;0.80;;;0.20;;
49043;SDS011;34860;48.066;14.124;2023-11-19T17:06:33;1.27;;;0.40;;
49043;SDS011;34860;48.066;14.124;2023-11-19T17:09:35;0.50;;;0.10;;
49043;SDS011;34860;48.066;14.124;2023-11-19T17:12:39;0.80;;;0.10;;
49043;SDS011;34860;48.066;14.124;2023-11-19T17:15:58;0.03;;;0.00;;
49043;SDS011;34860;48.066;14.124;2023-11-19T17:19:05;2.40;;;0.30;;
49043;SDS011;34860;48.066;14.124;2023-11-19T17:22:11;3.08;;;0.28;;
49043;SDS011;34860;48.066;14.124;2023-11-19T17:25:15;0.17;;;0.10;;
49043;SDS011;34860;48.066;14.124;2023-11-19T17:28:21;0.10;;;0.10;;
49043;SDS011;34860;48.066;14.124;2023-11-19T17:31:34;0.10;;;0.00;;
49043;SDS011;34860;48.066;14.124;2023-11-19T17:34:45;0.77;;;0.00;;
49043;SDS011;34860;48.066;14.124;2023-11-19T17:37:53;0.00;;;0.00;;
49043;SDS011;34860;48.066;14.124;2023-11-19T17:40:58;0.05;;;0.00;;
49043;SDS011;34860;48.066;14.124;2023-11-19T17:44:06;0.00;;;0.00;;